sensor_id;sensor_type;location;lat;lon;timestamp;P1;durP1;ratioP1;P2;durP2;ratioP2
68680;SDS011;55836;49.858;6.756;2023-07-29T00:00:49;2.63;;;1.93;;
68680;SDS011;55836;49.858;6.756;2023-07-29T00:03:15;2.53;;;2.33;;
68680;SDS011;55836;49.858;6.756;2023-07-29T00:05:41;2.77;;;2.30;;
68680;SDS011;55836;49.858;6.756;2023-07-29T00:08:07;2.13;;;1.87;;
68680;SDS011;55836;49.858;6.756;2023-07-29T00:10:36;2.70;;;1.80;;
68680;SDS011;55836;49.858;6.756;2023-07-29T00:13:03;2.53;;;1.97;;
68680;SDS011;55836;49.858;6.756;2023-07-29T00:15:29;2.20;;;1.90;;
68680;SDS011;55836;49.858;6.756;2023-07-29T00:17:55;1.87;;;1.77;;
68680;SDS011;55836;49.858;6.756;2023-07-29T00:20:21;2.57;;;1.80;;
68680;SDS011;55836;49.858;6.756;2023-07-29T00:22:48;4.03;;;2.00;;
68680;SDS011;55836;49.858;6.756;2023-07-29T00:25:19;4.37;;;1.90;;
68680;SDS011;55836;49.858;6.756;2023-07-29T00:27:45;2.60;;;2.10;;
68680;SDS011;55836;49.858;6.756;2023-07-29T00:30:11;4.53;;;1.97;;
68680;SDS011;55836;49.858;6.756;2023-07-29T00:32:37;4.73;;;2.57;;
68680;SDS011;55836;49.858;6.756;2023-07-29T00:35:03;2.83;;;2.07;;
68680;SDS011;55836;49.858;6.756;2023-07-29T00:37:30;3.30;;;2.30;;
68680;SDS011;55836;49.858;6.756;2023-07-29T00:39:56;2.40;;;2.20;;
68680;SDS011;55836;49.858;6.756;2023-07-29T00:42:23;2.47;;;1.93;;
68680;SDS011;55836;49.858;6.756;2023-07-29T00:44:49;1.87;;;1.67;;
68680;SDS011;55836;49.858;6.756;2023-07-29T00:47:15;4.33;;;1.97;;
68680;SDS011;55836;49.858;6.756;2023-07-29T00:49:41;6.33;;;1.80;;
68680;SDS011;55836;49.858;6.756;2023-07-29T00:52:08;2.60;;;1.90;;
68680;SDS011;55836;49.858;6.756;2023-07-29T00:54:37;2.73;;;2.20;;
68680;SDS011;55836;49.858;6.756;2023-07-29T00:57:03;5.37;;;2.47;;
68680;SDS011;55836;49.858;6.756;2023-07-29T00:59:29;3.83;;;2.20;;
68680;SDS011;55836;49.858;6.756;2023-07-29T01:01:56;6.83;;;2.30;;
68680;SDS011;55836;49.858;6.756;2023-07-29T01:04:23;3.67;;;2.17;;
68680;SDS011;55836;49.858;6.756;2023-07-29T01:07:02;5.43;;;2.30;;
68680;SDS011;55836;49.858;6.756;2023-07-29T01:09:35;3.20;;;2.30;;
68680;SDS011;55836;49.858;6.756;2023-07-29T01:12:14;3.00;;;1.87;;
68680;SDS011;55836;49.858;6.756;2023-07-29T01:17:09;3.13;;;1.80;;
68680;SDS011;55836;49.858;6.756;2023-07-29T01:19:59;4.90;;;2.33;;
68680;SDS011;55836;49.858;6.756;2023-07-29T01:22:30;5.03;;;3.00;;
68680;SDS011;55836;49.858;6.756;2023-07-29T01:24:58;3.00;;;2.37;;
68680;SDS011;55836;49.858;6.756;2023-07-29T01:27:24;2.43;;;2.20;;
68680;SDS011;55836;49.858;6.756;2023-07-29T01:29:50;5.10;;;2.20;;
68680;SDS011;55836;49.858;6.756;2023-07-29T01:37:27;5.70;;;2.43;;
68680;SDS011;55836;49.858;6.756;2023-07-29T01:39:56;4.47;;;2.23;;
68680;SDS011;55836;49.858;6.756;2023-07-29T01:42:23;5.27;;;2.00;;
68680;SDS011;55836;49.858;6.756;2023-07-29T01:44:49;6.60;;;2.27;;
68680;SDS011;55836;49.858;6.756;2023-07-29T01:47:16;6.23;;;2.90;;
68680;SDS011;55836;49.858;6.756;2023-07-29T01:49:42;2.60;;;2.40;;
68680;SDS011;55836;49.858;6.756;2023-07-29T01:52:08;6.17;;;3.07;;
68680;SDS011;55836;49.858;6.756;2023-07-29T01:54:34;2.93;;;2.43;;
68680;SDS011;55836;49.858;6.756;2023-07-29T01:57:00;3.00;;;2.70;;
68680;SDS011;55836;49.858;6.756;2023-07-29T01:59:26;5.17;;;2.53;;
68680;SDS011;55836;49.858;6.756;2023-07-29T02:01:52;3.57;;;2.60;;
68680;SDS011;55836;49.858;6.756;2023-07-29T02:04:18;4.67;;;2.37;;
68680;SDS011;55836;49.858;6.756;2023-07-29T02:06:44;2.80;;;2.13;;
68680;SDS011;55836;49.858;6.756;2023-07-29T02:09:10;4.23;;;2.77;;
68680;SDS011;55836;49.858;6.756;2023-07-29T02:11:36;3.80;;;2.80;;
68680;SDS011;55836;49.858;6.756;2023-07-29T02:14:02;9.53;;;3.20;;
68680;SDS011;55836;49.858;6.756;2023-07-29T02:16:28;3.53;;;3.20;;
68680;SDS011;55836;49.858;6.756;2023-07-29T02:18:54;3.70;;;2.80;;
68680;SDS011;55836;49.858;6.756;2023-07-29T02:21:20;2.90;;;2.70;;
68680;SDS011;55836;49.858;6.756;2023-07-29T02:23:46;5.93;;;2.73;;
68680;SDS011;55836;49.858;6.756;2023-07-29T02:26:12;2.90;;;2.60;;
68680;SDS011;55836;49.858;6.756;2023-07-29T02:28:38;4.53;;;2.70;;
68680;SDS011;55836;49.858;6.756;2023-07-29T02:33:45;4.37;;;2.80;;
68680;SDS011;55836;49.858;6.756;2023-07-29T02:36:12;3.73;;;2.70;;
68680;SDS011;55836;49.858;6.756;2023-07-29T02:38:39;4.10;;;2.83;;
68680;SDS011;55836;49.858;6.756;2023-07-29T02:41:05;6.40;;;2.70;;
68680;SDS011;55836;49.858;6.756;2023-07-29T02:43:31;4.47;;;2.87;;
68680;SDS011;55836;49.858;6.756;2023-07-29T02:45:57;6.97;;;3.03;;
68680;SDS011;55836;49.858;6.756;2023-07-29T02:48:24;4.43;;;2.60;;
68680;SDS011;55836;49.858;6.756;2023-07-29T02:50:50;3.90;;;2.80;;
68680;SDS011;55836;49.858;6.756;2023-07-29T02:53:16;3.07;;;2.60;;
68680;SDS011;55836;49.858;6.756;2023-07-29T02:55:42;6.47;;;3.10;;
68680;SDS011;55836;49.858;6.756;2023-07-29T02:58:08;3.53;;;2.93;;
68680;SDS011;55836;49.858;6.756;2023-07-29T03:00:34;4.20;;;3.13;;
68680;SDS011;55836;49.858;6.756;2023-07-29T03:03:00;6.43;;;3.63;;
68680;SDS011;55836;49.858;6.756;2023-07-29T03:05:27;3.77;;;3.43;;
68680;SDS011;55836;49.858;6.756;2023-07-29T03:07:53;3.43;;;2.93;;
68680;SDS011;55836;49.858;6.756;2023-07-29T03:10:19;5.77;;;3.17;;
68680;SDS011;55836;49.858;6.756;2023-07-29T03:12:45;3.50;;;3.20;;
68680;SDS011;55836;49.858;6.756;2023-07-29T03:15:12;3.63;;;3.27;;
68680;SDS011;55836;49.858;6.756;2023-07-29T03:17:38;4.63;;;4.20;;
68680;SDS011;55836;49.858;6.756;2023-07-29T03:20:04;4.30;;;3.47;;
68680;SDS011;55836;49.858;6.756;2023-07-29T03:22:30;7.10;;;4.60;;
68680;SDS011;55836;49.858;6.756;2023-07-29T03:24:56;3.93;;;3.03;;
68680;SDS011;55836;49.858;6.756;2023-07-29T03:27:22;6.03;;;3.43;;
68680;SDS011;55836;49.858;6.756;2023-07-29T03:29:48;3.93;;;3.27;;
68680;SDS011;55836;49.858;6.756;2023-07-29T03:32:14;3.50;;;3.20;;
68680;SDS011;55836;49.858;6.756;2023-07-29T03:34:40;5.37;;;3.60;;
68680;SDS011;55836;49.858;6.756;2023-07-29T03:37:06;4.87;;;3.10;;
68680;SDS011;55836;49.858;6.756;2023-07-29T03:39:32;3.90;;;3.17;;
68680;SDS011;55836;49.858;6.756;2023-07-29T03:41:59;6.83;;;3.57;;
68680;SDS011;55836;49.858;6.756;2023-07-29T03:44:30;3.83;;;3.40;;
68680;SDS011;55836;49.858;6.756;2023-07-29T03:46:56;3.60;;;3.17;;
68680;SDS011;55836;49.858;6.756;2023-07-29T03:49:22;4.03;;;3.40;;
68680;SDS011;55836;49.858;6.756;2023-07-29T03:51:48;5.97;;;3.50;;
68680;SDS011;55836;49.858;6.756;2023-07-29T03:54:14;6.83;;;3.17;;
68680;SDS011;55836;49.858;6.756;2023-07-29T03:56:40;5.67;;;3.37;;
68680;SDS011;55836;49.858;6.756;2023-07-29T03:59:06;10.13;;;3.37;;
68680;SDS011;55836;49.858;6.756;2023-07-29T04:01:32;5.13;;;3.47;;
68680;SDS011;55836;49.858;6.756;2023-07-29T04:03:58;5.20;;;4.00;;
68680;SDS011;55836;49.858;6.756;2023-07-29T04:06:24;7.00;;;4.00;;
68680;SDS011;55836;49.858;6.756;2023-07-29T04:08:51;4.70;;;3.60;;
68680;SDS011;55836;49.858;6.756;2023-07-29T04:11:17;9.87;;;3.80;;
68680;SDS011;55836;49.858;6.756;2023-07-29T04:13:43;5.13;;;4.27;;
68680;SDS011;55836;49.858;6.756;2023-07-29T04:16:09;11.67;;;3.83;;
68680;SDS011;55836;49.858;6.756;2023-07-29T04:18:35;7.30;;;3.80;;
68680;SDS011;55836;49.858;6.756;2023-07-29T04:21:01;7.43;;;4.60;;
68680;SDS011;55836;49.858;6.756;2023-07-29T04:23:27;4.37;;;3.90;;
68680;SDS011;55836;49.858;6.756;2023-07-29T04:25:53;4.30;;;3.73;;
68680;SDS011;55836;49.858;6.756;2023-07-29T04:28:19;3.93;;;3.50;;
68680;SDS011;55836;49.858;6.756;2023-07-29T04:30:45;4.20;;;3.77;;
68680;SDS011;55836;49.858;6.756;2023-07-29T04:33:11;6.50;;;4.53;;
68680;SDS011;55836;49.858;6.756;2023-07-29T04:35:37;7.03;;;4.50;;
68680;SDS011;55836;49.858;6.756;2023-07-29T04:38:03;7.00;;;4.23;;
68680;SDS011;55836;49.858;6.756;2023-07-29T04:40:32;5.47;;;3.80;;
68680;SDS011;55836;49.858;6.756;2023-07-29T04:42:59;6.03;;;4.13;;
68680;SDS011;55836;49.858;6.756;2023-07-29T04:45:27;7.53;;;3.97;;
68680;SDS011;55836;49.858;6.756;2023-07-29T04:47:54;8.30;;;4.27;;
68680;SDS011;55836;49.858;6.756;2023-07-29T04:50:23;5.90;;;4.80;;
68680;SDS011;55836;49.858;6.756;2023-07-29T04:52:49;9.07;;;5.10;;
68680;SDS011;55836;49.858;6.756;2023-07-29T04:55:15;7.13;;;4.43;;
68680;SDS011;55836;49.858;6.756;2023-07-29T04:57:41;5.60;;;5.07;;
68680;SDS011;55836;49.858;6.756;2023-07-29T05:00:07;6.00;;;4.73;;
68680;SDS011;55836;49.858;6.756;2023-07-29T05:02:33;7.47;;;4.27;;
68680;SDS011;55836;49.858;6.756;2023-07-29T05:04:59;4.63;;;3.90;;
68680;SDS011;55836;49.858;6.756;2023-07-29T05:07:25;5.57;;;3.97;;
68680;SDS011;55836;49.858;6.756;2023-07-29T05:09:51;5.53;;;4.20;;
68680;SDS011;55836;49.858;6.756;2023-07-29T05:12:17;4.90;;;4.03;;
68680;SDS011;55836;49.858;6.756;2023-07-29T05:14:43;4.90;;;4.40;;
68680;SDS011;55836;49.858;6.756;2023-07-29T05:17:09;4.70;;;4.23;;
68680;SDS011;55836;49.858;6.756;2023-07-29T05:19:35;3.73;;;3.43;;
68680;SDS011;55836;49.858;6.756;2023-07-29T05:22:01;5.50;;;4.73;;
68680;SDS011;55836;49.858;6.756;2023-07-29T05:24:27;6.27;;;3.90;;
68680;SDS011;55836;49.858;6.756;2023-07-29T05:26:53;7.93;;;5.20;;
68680;SDS011;55836;49.858;6.756;2023-07-29T05:29:19;5.30;;;3.97;;
68680;SDS011;55836;49.858;6.756;2023-07-29T05:31:45;5.10;;;3.90;;
68680;SDS011;55836;49.858;6.756;2023-07-29T05:34:11;7.50;;;4.63;;
68680;SDS011;55836;49.858;6.756;2023-07-29T05:36:37;4.23;;;3.50;;
68680;SDS011;55836;49.858;6.756;2023-07-29T05:39:04;3.77;;;3.47;;
68680;SDS011;55836;49.858;6.756;2023-07-29T05:41:30;4.83;;;4.17;;
68680;SDS011;55836;49.858;6.756;2023-07-29T05:43:56;5.30;;;3.80;;
68680;SDS011;55836;49.858;6.756;2023-07-29T05:46:22;4.00;;;3.60;;
68680;SDS011;55836;49.858;6.756;2023-07-29T05:48:48;7.20;;;4.57;;
68680;SDS011;55836;49.858;6.756;2023-07-29T05:51:14;5.20;;;4.03;;
68680;SDS011;55836;49.858;6.756;2023-07-29T05:53:40;6.17;;;3.80;;
68680;SDS011;55836;49.858;6.756;2023-07-29T05:56:06;5.10;;;3.63;;
68680;SDS011;55836;49.858;6.756;2023-07-29T05:58:32;3.70;;;3.40;;
68680;SDS011;55836;49.858;6.756;2023-07-29T06:00:58;5.30;;;3.67;;
68680;SDS011;55836;49.858;6.756;2023-07-29T06:03:24;4.90;;;3.83;;
68680;SDS011;55836;49.858;6.756;2023-07-29T06:05:50;7.77;;;3.67;;
68680;SDS011;55836;49.858;6.756;2023-07-29T06:08:16;5.80;;;3.90;;
68680;SDS011;55836;49.858;6.756;2023-07-29T06:10:42;5.80;;;4.40;;
68680;SDS011;55836;49.858;6.756;2023-07-29T06:13:09;5.83;;;4.57;;
68680;SDS011;55836;49.858;6.756;2023-07-29T06:15:35;5.77;;;3.40;;
68680;SDS011;55836;49.858;6.756;2023-07-29T06:18:01;4.57;;;3.20;;
68680;SDS011;55836;49.858;6.756;2023-07-29T06:20:27;4.03;;;3.40;;
68680;SDS011;55836;49.858;6.756;2023-07-29T06:22:53;4.40;;;3.33;;
68680;SDS011;55836;49.858;6.756;2023-07-29T06:25:19;3.83;;;3.53;;
68680;SDS011;55836;49.858;6.756;2023-07-29T06:27:45;6.90;;;4.30;;
68680;SDS011;55836;49.858;6.756;2023-07-29T06:30:11;3.97;;;3.57;;
68680;SDS011;55836;49.858;6.756;2023-07-29T06:32:37;4.80;;;3.33;;
68680;SDS011;55836;49.858;6.756;2023-07-29T06:35:03;3.73;;;3.43;;
68680;SDS011;55836;49.858;6.756;2023-07-29T06:37:29;4.97;;;3.63;;
68680;SDS011;55836;49.858;6.756;2023-07-29T06:39:55;3.63;;;3.33;;
68680;SDS011;55836;49.858;6.756;2023-07-29T06:42:21;4.07;;;3.67;;
68680;SDS011;55836;49.858;6.756;2023-07-29T06:44:47;4.07;;;3.77;;
68680;SDS011;55836;49.858;6.756;2023-07-29T06:47:13;4.83;;;3.23;;
68680;SDS011;55836;49.858;6.756;2023-07-29T06:49:41;3.60;;;3.30;;
68680;SDS011;55836;49.858;6.756;2023-07-29T06:52:07;4.27;;;3.87;;
68680;SDS011;55836;49.858;6.756;2023-07-29T06:54:33;3.43;;;3.13;;
68680;SDS011;55836;49.858;6.756;2023-07-29T06:56:59;5.47;;;4.20;;
68680;SDS011;55836;49.858;6.756;2023-07-29T06:59:28;4.63;;;2.73;;
68680;SDS011;55836;49.858;6.756;2023-07-29T07:01:54;2.60;;;2.40;;
68680;SDS011;55836;49.858;6.756;2023-07-29T07:04:20;3.33;;;1.90;;
68680;SDS011;55836;49.858;6.756;2023-07-29T07:06:46;2.87;;;1.90;;
68680;SDS011;55836;49.858;6.756;2023-07-29T07:09:12;2.47;;;1.67;;
68680;SDS011;55836;49.858;6.756;2023-07-29T07:11:38;3.77;;;1.70;;
68680;SDS011;55836;49.858;6.756;2023-07-29T07:14:04;2.20;;;1.93;;
68680;SDS011;55836;49.858;6.756;2023-07-29T07:16:30;1.53;;;1.43;;
68680;SDS011;55836;49.858;6.756;2023-07-29T07:18:56;4.30;;;1.53;;
68680;SDS011;55836;49.858;6.756;2023-07-29T07:21:22;5.83;;;1.90;;
68680;SDS011;55836;49.858;6.756;2023-07-29T07:23:49;2.37;;;1.80;;
68680;SDS011;55836;49.858;6.756;2023-07-29T07:26:15;2.33;;;1.70;;
68680;SDS011;55836;49.858;6.756;2023-07-29T07:28:41;2.10;;;1.90;;
68680;SDS011;55836;49.858;6.756;2023-07-29T07:31:10;3.17;;;1.60;;
68680;SDS011;55836;49.858;6.756;2023-07-29T07:33:36;3.07;;;1.70;;
68680;SDS011;55836;49.858;6.756;2023-07-29T07:36:03;3.40;;;1.70;;
68680;SDS011;55836;49.858;6.756;2023-07-29T07:38:29;3.37;;;1.87;;
68680;SDS011;55836;49.858;6.756;2023-07-29T07:40:55;3.20;;;1.70;;
68680;SDS011;55836;49.858;6.756;2023-07-29T07:43:21;2.73;;;1.50;;
68680;SDS011;55836;49.858;6.756;2023-07-29T07:45:48;2.97;;;1.70;;
68680;SDS011;55836;49.858;6.756;2023-07-29T07:48:14;3.53;;;2.00;;
68680;SDS011;55836;49.858;6.756;2023-07-29T07:50:41;5.33;;;2.10;;
68680;SDS011;55836;49.858;6.756;2023-07-29T07:53:07;4.40;;;1.87;;
68680;SDS011;55836;49.858;6.756;2023-07-29T07:55:33;1.70;;;1.60;;
68680;SDS011;55836;49.858;6.756;2023-07-29T07:57:59;1.87;;;1.40;;
68680;SDS011;55836;49.858;6.756;2023-07-29T08:00:25;1.80;;;1.70;;
68680;SDS011;55836;49.858;6.756;2023-07-29T08:02:51;1.60;;;1.47;;
68680;SDS011;55836;49.858;6.756;2023-07-29T08:05:18;2.03;;;1.73;;
68680;SDS011;55836;49.858;6.756;2023-07-29T08:07:44;1.80;;;1.70;;
68680;SDS011;55836;49.858;6.756;2023-07-29T08:10:10;2.80;;;2.07;;
68680;SDS011;55836;49.858;6.756;2023-07-29T08:12:38;2.83;;;1.60;;
68680;SDS011;55836;49.858;6.756;2023-07-29T08:15:04;2.53;;;1.97;;
68680;SDS011;55836;49.858;6.756;2023-07-29T08:17:31;3.00;;;1.70;;
68680;SDS011;55836;49.858;6.756;2023-07-29T08:19:57;1.97;;;1.77;;
68680;SDS011;55836;49.858;6.756;2023-07-29T08:22:24;4.37;;;1.90;;
68680;SDS011;55836;49.858;6.756;2023-07-29T08:24:50;2.20;;;1.77;;
68680;SDS011;55836;49.858;6.756;2023-07-29T08:27:16;1.60;;;1.50;;
68680;SDS011;55836;49.858;6.756;2023-07-29T08:29:42;2.70;;;1.83;;
68680;SDS011;55836;49.858;6.756;2023-07-29T08:32:08;1.93;;;1.70;;
68680;SDS011;55836;49.858;6.756;2023-07-29T08:34:34;2.73;;;1.80;;
68680;SDS011;55836;49.858;6.756;2023-07-29T08:37:02;3.60;;;1.70;;
68680;SDS011;55836;49.858;6.756;2023-07-29T08:39:28;2.83;;;1.73;;
68680;SDS011;55836;49.858;6.756;2023-07-29T08:41:55;1.97;;;1.60;;
68680;SDS011;55836;49.858;6.756;2023-07-29T08:44:26;1.73;;;1.63;;
68680;SDS011;55836;49.858;6.756;2023-07-29T08:46:56;1.70;;;1.60;;
68680;SDS011;55836;49.858;6.756;2023-07-29T08:49:22;1.90;;;1.70;;
68680;SDS011;55836;49.858;6.756;2023-07-29T08:51:49;2.23;;;1.47;;
68680;SDS011;55836;49.858;6.756;2023-07-29T08:54:16;4.60;;;1.90;;
68680;SDS011;55836;49.858;6.756;2023-07-29T08:56:42;2.07;;;1.77;;
68680;SDS011;55836;49.858;6.756;2023-07-29T08:59:08;3.50;;;1.70;;
68680;SDS011;55836;49.858;6.756;2023-07-29T09:01:35;2.60;;;1.70;;
68680;SDS011;55836;49.858;6.756;2023-07-29T09:04:02;2.90;;;2.00;;
68680;SDS011;55836;49.858;6.756;2023-07-29T09:06:28;1.73;;;1.63;;
68680;SDS011;55836;49.858;6.756;2023-07-29T09:08:54;2.63;;;2.03;;
68680;SDS011;55836;49.858;6.756;2023-07-29T09:11:23;3.50;;;1.80;;
68680;SDS011;55836;49.858;6.756;2023-07-29T09:13:49;2.03;;;1.90;;
68680;SDS011;55836;49.858;6.756;2023-07-29T09:16:15;3.30;;;1.90;;
68680;SDS011;55836;49.858;6.756;2023-07-29T09:18:41;1.90;;;1.77;;
68680;SDS011;55836;49.858;6.756;2023-07-29T09:21:07;2.83;;;1.90;;
68680;SDS011;55836;49.858;6.756;2023-07-29T09:23:40;3.00;;;1.77;;
68680;SDS011;55836;49.858;6.756;2023-07-29T09:26:06;2.67;;;1.80;;
68680;SDS011;55836;49.858;6.756;2023-07-29T09:28:36;1.90;;;1.80;;
68680;SDS011;55836;49.858;6.756;2023-07-29T09:31:02;4.17;;;1.73;;
68680;SDS011;55836;49.858;6.756;2023-07-29T09:33:28;2.07;;;1.83;;
68680;SDS011;55836;49.858;6.756;2023-07-29T09:35:56;2.67;;;2.13;;
68680;SDS011;55836;49.858;6.756;2023-07-29T09:38:28;2.10;;;1.90;;
68680;SDS011;55836;49.858;6.756;2023-07-29T09:40:55;1.70;;;1.60;;
68680;SDS011;55836;49.858;6.756;2023-07-29T09:43:25;1.87;;;1.77;;
68680;SDS011;55836;49.858;6.756;2023-07-29T09:45:52;1.87;;;1.70;;
68680;SDS011;55836;49.858;6.756;2023-07-29T09:48:19;3.13;;;1.60;;
68680;SDS011;55836;49.858;6.756;2023-07-29T09:50:48;2.03;;;1.83;;
68680;SDS011;55836;49.858;6.756;2023-07-29T09:53:14;3.00;;;1.50;;
68680;SDS011;55836;49.858;6.756;2023-07-29T09:55:40;1.60;;;1.50;;
68680;SDS011;55836;49.858;6.756;2023-07-29T09:58:11;1.57;;;1.47;;
68680;SDS011;55836;49.858;6.756;2023-07-29T10:00:37;1.97;;;1.60;;
68680;SDS011;55836;49.858;6.756;2023-07-29T10:03:05;2.10;;;1.90;;
68680;SDS011;55836;49.858;6.756;2023-07-29T10:05:32;3.10;;;1.77;;
68680;SDS011;55836;49.858;6.756;2023-07-29T10:08:04;2.53;;;1.97;;
68680;SDS011;55836;49.858;6.756;2023-07-29T10:10:30;1.70;;;1.60;;
68680;SDS011;55836;49.858;6.756;2023-07-29T10:12:56;1.80;;;1.70;;
68680;SDS011;55836;49.858;6.756;2023-07-29T10:15:22;2.53;;;1.80;;
68680;SDS011;55836;49.858;6.756;2023-07-29T10:17:49;2.70;;;2.07;;
68680;SDS011;55836;49.858;6.756;2023-07-29T10:20:15;2.03;;;1.70;;
68680;SDS011;55836;49.858;6.756;2023-07-29T10:22:42;1.60;;;1.50;;
68680;SDS011;55836;49.858;6.756;2023-07-29T10:25:19;2.37;;;1.80;;
68680;SDS011;55836;49.858;6.756;2023-07-29T10:27:49;4.03;;;1.63;;
68680;SDS011;55836;49.858;6.756;2023-07-29T10:30:15;3.43;;;1.50;;
68680;SDS011;55836;49.858;6.756;2023-07-29T10:32:42;1.40;;;1.30;;
68680;SDS011;55836;49.858;6.756;2023-07-29T10:35:09;2.03;;;1.70;;
68680;SDS011;55836;49.858;6.756;2023-07-29T10:37:35;1.40;;;1.27;;
68680;SDS011;55836;49.858;6.756;2023-07-29T10:40:03;2.00;;;1.60;;
68680;SDS011;55836;49.858;6.756;2023-07-29T10:42:31;2.00;;;1.50;;
68680;SDS011;55836;49.858;6.756;2023-07-29T10:44:57;1.30;;;1.20;;
68680;SDS011;55836;49.858;6.756;2023-07-29T10:47:24;2.00;;;1.50;;
68680;SDS011;55836;49.858;6.756;2023-07-29T10:49:54;2.23;;;1.57;;
68680;SDS011;55836;49.858;6.756;2023-07-29T10:55:02;1.87;;;1.40;;
68680;SDS011;55836;49.858;6.756;2023-07-29T10:57:34;1.50;;;1.40;;
68680;SDS011;55836;49.858;6.756;2023-07-29T11:00:01;1.80;;;1.70;;
68680;SDS011;55836;49.858;6.756;2023-07-29T11:02:31;4.10;;;1.50;;
68680;SDS011;55836;49.858;6.756;2023-07-29T11:04:58;1.93;;;1.77;;
68680;SDS011;55836;49.858;6.756;2023-07-29T11:07:26;1.57;;;1.43;;
68680;SDS011;55836;49.858;6.756;2023-07-29T11:09:53;2.33;;;1.53;;
68680;SDS011;55836;49.858;6.756;2023-07-29T11:17:37;1.67;;;1.57;;
68680;SDS011;55836;49.858;6.756;2023-07-29T11:20:04;2.27;;;1.30;;
68680;SDS011;55836;49.858;6.756;2023-07-29T11:22:32;1.57;;;1.47;;
68680;SDS011;55836;49.858;6.756;2023-07-29T11:25:06;1.83;;;1.37;;
68680;SDS011;55836;49.858;6.756;2023-07-29T11:27:33;2.60;;;1.73;;
68680;SDS011;55836;49.858;6.756;2023-07-29T11:30:06;1.87;;;1.53;;
68680;SDS011;55836;49.858;6.756;2023-07-29T11:32:33;2.77;;;1.40;;
68680;SDS011;55836;49.858;6.756;2023-07-29T11:35:33;2.87;;;1.57;;
68680;SDS011;55836;49.858;6.756;2023-07-29T11:37:54;1.77;;;1.47;;
68680;SDS011;55836;49.858;6.756;2023-07-29T11:40:23;2.00;;;1.80;;
68680;SDS011;55836;49.858;6.756;2023-07-29T11:42:50;2.43;;;1.57;;
68680;SDS011;55836;49.858;6.756;2023-07-29T11:45:17;2.53;;;1.70;;
68680;SDS011;55836;49.858;6.756;2023-07-29T11:47:43;1.83;;;1.60;;
68680;SDS011;55836;49.858;6.756;2023-07-29T11:50:10;1.80;;;1.70;;
68680;SDS011;55836;49.858;6.756;2023-07-29T11:52:43;3.03;;;1.60;;
68680;SDS011;55836;49.858;6.756;2023-07-29T11:55:10;1.60;;;1.40;;
68680;SDS011;55836;49.858;6.756;2023-07-29T11:57:37;1.60;;;1.50;;
68680;SDS011;55836;49.858;6.756;2023-07-29T12:00:03;2.20;;;1.67;;
68680;SDS011;55836;49.858;6.756;2023-07-29T12:02:31;2.17;;;1.60;;
68680;SDS011;55836;49.858;6.756;2023-07-29T12:04:57;2.30;;;1.70;;
68680;SDS011;55836;49.858;6.756;2023-07-29T12:07:24;3.40;;;1.77;;
68680;SDS011;55836;49.858;6.756;2023-07-29T12:09:50;2.27;;;1.63;;
68680;SDS011;55836;49.858;6.756;2023-07-29T12:12:16;1.40;;;1.30;;
68680;SDS011;55836;49.858;6.756;2023-07-29T12:14:45;7.17;;;2.10;;
68680;SDS011;55836;49.858;6.756;2023-07-29T12:17:11;1.73;;;1.53;;
68680;SDS011;55836;49.858;6.756;2023-07-29T12:19:38;1.60;;;1.50;;
68680;SDS011;55836;49.858;6.756;2023-07-29T12:22:05;3.00;;;1.53;;
68680;SDS011;55836;49.858;6.756;2023-07-29T12:24:32;2.00;;;1.80;;
68680;SDS011;55836;49.858;6.756;2023-07-29T12:26:58;1.60;;;1.50;;
68680;SDS011;55836;49.858;6.756;2023-07-29T12:29:25;1.80;;;1.53;;
68680;SDS011;55836;49.858;6.756;2023-07-29T12:31:58;3.50;;;1.27;;
68680;SDS011;55836;49.858;6.756;2023-07-29T12:34:25;1.67;;;1.57;;
68680;SDS011;55836;49.858;6.756;2023-07-29T12:36:52;2.90;;;1.40;;
68680;SDS011;55836;49.858;6.756;2023-07-29T12:39:20;1.50;;;1.40;;
68680;SDS011;55836;49.858;6.756;2023-07-29T12:41:47;3.37;;;1.60;;
68680;SDS011;55836;49.858;6.756;2023-07-29T12:44:13;1.47;;;1.37;;
68680;SDS011;55836;49.858;6.756;2023-07-29T12:46:39;3.00;;;1.57;;
68680;SDS011;55836;49.858;6.756;2023-07-29T12:49:05;1.50;;;1.40;;
68680;SDS011;55836;49.858;6.756;2023-07-29T12:51:31;2.63;;;1.60;;
68680;SDS011;55836;49.858;6.756;2023-07-29T12:53:57;1.90;;;1.70;;
68680;SDS011;55836;49.858;6.756;2023-07-29T12:56:23;1.70;;;1.60;;
68680;SDS011;55836;49.858;6.756;2023-07-29T12:58:49;2.20;;;1.50;;
68680;SDS011;55836;49.858;6.756;2023-07-29T13:01:15;2.00;;;1.53;;
68680;SDS011;55836;49.858;6.756;2023-07-29T13:03:45;2.53;;;1.50;;
68680;SDS011;55836;49.858;6.756;2023-07-29T13:06:11;3.03;;;1.77;;
68680;SDS011;55836;49.858;6.756;2023-07-29T13:08:38;2.00;;;1.80;;
68680;SDS011;55836;49.858;6.756;2023-07-29T13:11:04;2.53;;;1.73;;
68680;SDS011;55836;49.858;6.756;2023-07-29T13:13:30;1.40;;;1.30;;
68680;SDS011;55836;49.858;6.756;2023-07-29T13:15:57;1.83;;;1.73;;
68680;SDS011;55836;49.858;6.756;2023-07-29T13:18:23;1.60;;;1.43;;
68680;SDS011;55836;49.858;6.756;2023-07-29T13:20:49;1.50;;;1.40;;
68680;SDS011;55836;49.858;6.756;2023-07-29T13:23:15;1.43;;;1.33;;
68680;SDS011;55836;49.858;6.756;2023-07-29T13:25:42;4.53;;;1.73;;
68680;SDS011;55836;49.858;6.756;2023-07-29T13:28:11;3.40;;;1.80;;
68680;SDS011;55836;49.858;6.756;2023-07-29T13:30:40;2.40;;;1.60;;
68680;SDS011;55836;49.858;6.756;2023-07-29T13:33:06;3.13;;;1.50;;
68680;SDS011;55836;49.858;6.756;2023-07-29T13:35:32;1.83;;;1.73;;
68680;SDS011;55836;49.858;6.756;2023-07-29T13:38:02;1.60;;;1.50;;
68680;SDS011;55836;49.858;6.756;2023-07-29T13:40:28;2.53;;;1.60;;
68680;SDS011;55836;49.858;6.756;2023-07-29T13:42:54;2.13;;;1.80;;
68680;SDS011;55836;49.858;6.756;2023-07-29T13:45:20;2.57;;;1.77;;
68680;SDS011;55836;49.858;6.756;2023-07-29T13:47:49;2.60;;;1.97;;
68680;SDS011;55836;49.858;6.756;2023-07-29T13:50:15;2.03;;;1.83;;
68680;SDS011;55836;49.858;6.756;2023-07-29T13:52:41;1.40;;;1.30;;
68680;SDS011;55836;49.858;6.756;2023-07-29T13:55:10;1.70;;;1.60;;
68680;SDS011;55836;49.858;6.756;2023-07-29T13:57:36;1.30;;;1.20;;
68680;SDS011;55836;49.858;6.756;2023-07-29T14:00:03;3.87;;;1.90;;
68680;SDS011;55836;49.858;6.756;2023-07-29T14:02:30;2.00;;;1.53;;
68680;SDS011;55836;49.858;6.756;2023-07-29T14:04:56;2.03;;;1.73;;
68680;SDS011;55836;49.858;6.756;2023-07-29T14:07:25;2.23;;;2.03;;
68680;SDS011;55836;49.858;6.756;2023-07-29T14:09:51;1.70;;;1.60;;
68680;SDS011;55836;49.858;6.756;2023-07-29T14:12:20;2.93;;;1.77;;
68680;SDS011;55836;49.858;6.756;2023-07-29T14:14:46;1.53;;;1.43;;
68680;SDS011;55836;49.858;6.756;2023-07-29T14:17:12;3.20;;;1.47;;
68680;SDS011;55836;49.858;6.756;2023-07-29T14:19:38;2.80;;;1.57;;
68680;SDS011;55836;49.858;6.756;2023-07-29T14:22:04;2.13;;;1.70;;
68680;SDS011;55836;49.858;6.756;2023-07-29T14:24:30;1.80;;;1.70;;
68680;SDS011;55836;49.858;6.756;2023-07-29T14:26:57;1.97;;;1.53;;
68680;SDS011;55836;49.858;6.756;2023-07-29T14:29:23;1.40;;;1.27;;
68680;SDS011;55836;49.858;6.756;2023-07-29T14:31:49;1.80;;;1.50;;
68680;SDS011;55836;49.858;6.756;2023-07-29T14:34:15;2.77;;;1.60;;
68680;SDS011;55836;49.858;6.756;2023-07-29T14:36:47;2.33;;;1.60;;
68680;SDS011;55836;49.858;6.756;2023-07-29T14:39:13;2.37;;;1.60;;
68680;SDS011;55836;49.858;6.756;2023-07-29T14:41:41;2.20;;;1.40;;
68680;SDS011;55836;49.858;6.756;2023-07-29T14:44:07;2.47;;;1.37;;
68680;SDS011;55836;49.858;6.756;2023-07-29T14:46:33;1.50;;;1.40;;
68680;SDS011;55836;49.858;6.756;2023-07-29T14:48:59;1.67;;;1.37;;
68680;SDS011;55836;49.858;6.756;2023-07-29T14:51:25;1.53;;;1.43;;
68680;SDS011;55836;49.858;6.756;2023-07-29T14:53:51;2.00;;;1.40;;
68680;SDS011;55836;49.858;6.756;2023-07-29T14:56:17;2.43;;;1.37;;
68680;SDS011;55836;49.858;6.756;2023-07-29T14:58:49;1.40;;;1.30;;
68680;SDS011;55836;49.858;6.756;2023-07-29T15:01:15;1.60;;;1.50;;
68680;SDS011;55836;49.858;6.756;2023-07-29T15:03:41;1.47;;;1.37;;